Time;durP1;ratioP1;P1;durP2;ratioP2;P2;SDS_P1;SDS_P2;PMS_P1;PMS_P2;Temp;Humidity;BMP_temperature;BMP_pressure;BME280_temperature;BME280_humidity;BME280_pressure;Samples;Min_cycle;Max_cycle;Signal;HPM_P1;HPM_P2
2021/12/27 00:00:46;;;;;;;47.75;31.52;;;23.10;70.00;;;;;;6221284;28;89506;-65
2021/12/27 00:03:51;;;;;;;63.65;41.22;;;23.20;70.10;;;;;;6205630;28;88325;-65
2021/12/27 00:06:56;;;;;;;95.18;71.68;;;23.20;70.10;;;;;;6206515;28;88010;-65
2021/12/27 00:10:00;;;;;;;138.07;99.00;;;23.20;70.30;;;;;;6192191;28;90095;-65
2021/12/27 00:13:05;;;;;;;138.90;103.13;;;23.20;70.60;;;;;;6198180;28;87824;-65
2021/12/27 00:16:07;;;;;;;129.52;101.05;;;23.20;70.60;;;;;;6180805;28;87067;-65
2021/12/27 00:19:10;;;;;;;126.70;99.60;;;23.20;70.50;;;;;;6184913;28;89062;-64
2021/12/27 00:22:13;;;;;;;119.05;94.90;;;23.20;70.50;;;;;;6203390;28;88435;-65
2021/12/27 00:25:17;;;;;;;114.93;92.32;;;23.20;70.40;;;;;;6196474;28;87923;-65
2021/12/27 00:28:19;;;;;;;116.97;91.95;;;23.20;70.40;;;;;;6204792;28;89470;-64
2021/12/27 00:31:21;;;;;;;112.15;88.72;;;23.20;70.40;;;;;;6195877;28;88227;-65
2021/12/27 00:34:23;;;;;;;106.28;84.20;;;23.20;70.30;;;;;;6204684;28;89143;-65
2021/12/27 00:37:27;;;;;;;102.18;82.68;;;23.20;70.30;;;;;;6192125;28;89048;-65
2021/12/27 00:40:29;;;;;;;100.55;81.35;;;23.20;70.30;;;;;;6203251;28;90036;-65
2021/12/27 00:43:31;;;;;;;99.45;78.97;;;23.20;70.30;;;;;;6204391;28;89148;-65
2021/12/27 00:46:33;;;;;;;92.90;75.90;;;23.20;70.20;;;;;;6192411;28;87954;-65
2021/12/27 00:49:35;;;;;;;98.85;74.35;;;23.20;70.20;;;;;;6202908;28;89410;-65
2021/12/27 00:52:38;;;;;;;87.80;70.20;;;23.20;70.20;;;;;;6206297;28;88867;-65
2021/12/27 00:55:40;;;;;;;84.78;69.75;;;23.20;70.20;;;;;;6192448;28;89001;-65
2021/12/27 00:58:42;;;;;;;83.85;70.53;;;23.20;70.20;;;;;;6195312;28;89177;-64
2021/12/27 01:01:45;;;;;;;78.75;65.80;;;23.20;70.10;;;;;;6194471;28;87162;-64
2021/12/27 01:04:47;;;;;;;75.00;61.88;;;23.20;69.90;;;;;;6199107;28;89102;-65
2021/12/27 01:07:50;;;;;;;70.22;56.40;;;23.20;69.00;;;;;;6205091;28;89095;-64
2021/12/27 01:11:11;;;;;;;67.25;54.65;;;23.20;68.10;;;;;;6197785;28;90101;-64
2021/12/27 01:14:15;;;;;;;66.05;52.25;;;23.20;67.50;;;;;;6190882;28;89742;-64
2021/12/27 01:17:17;;;;;;;59.40;50.17;;;23.20;66.80;;;;;;6199023;28;89055;-66
2021/12/27 01:20:22;;;;;;;59.80;50.00;;;23.20;66.60;;;;;;6190919;28;89038;-66
2021/12/27 01:23:25;;;;;;;57.63;49.25;;;23.20;67.10;;;;;;6198103;28;88249;-66
2021/12/27 01:26:27;;;;;;;54.30;46.45;;;23.20;67.60;;;;;;6201911;28;89131;-66
2021/12/27 01:29:29;;;;;;;53.22;45.35;;;23.20;67.70;;;;;;6205019;28;89078;-66
2021/12/27 01:32:36;;;;;;;50.80;44.15;;;23.20;67.70;;;;;;6207511;28;88434;-66
2021/12/27 01:35:38;;;;;;;52.30;43.33;;;23.20;67.90;;;;;;6207027;28;89080;-66
2021/12/27 01:38:42;;;;;;;47.03;41.67;;;23.20;67.90;;;;;;6205695;28;89514;-66
2021/12/27 01:41:44;;;;;;;48.28;42.55;;;23.20;67.90;;;;;;6209713;28;90013;-66
2021/12/27 01:44:46;;;;;;;47.05;40.05;;;23.20;68.00;;;;;;6208320;28;89016;-66
2021/12/27 01:47:48;;;;;;;47.10;39.50;;;23.20;68.10;;;;;;6206883;28;89055;-67
2021/12/27 01:50:53;;;;;;;45.08;38.63;;;23.30;68.10;;;;;;6193058;28;89054;-67
2021/12/27 01:53:57;;;;;;;41.35;36.75;;;23.20;68.10;;;;;;6207433;28;89081;-65
2021/12/27 01:57:00;;;;;;;40.75;36.30;;;23.20;69.00;;;;;;6204935;28;89156;-66
2021/12/27 02:00:02;;;;;;;40.15;35.75;;;23.20;68.00;;;;;;6205857;28;89190;-66
2021/12/27 02:03:04;;;;;;;40.00;35.60;;;23.20;68.10;;;;;;6204874;28;88373;-66
2021/12/27 02:06:06;;;;;;;40.42;34.80;;;23.20;68.10;;;;;;6181823;28;89496;-66
2021/12/27 02:09:10;;;;;;;37.80;33.08;;;23.20;68.20;;;;;;6205680;28;89121;-66
2021/12/27 02:12:12;;;;;;;36.30;32.30;;;23.20;68.10;;;;;;6204212;28;90075;-67
2021/12/27 02:15:14;;;;;;;36.55;31.63;;;23.20;68.10;;;;;;6185878;28;89441;-66
2021/12/27 02:18:16;;;;;;;37.78;31.35;;;23.20;68.10;;;;;;6201306;28;89160;-67
2021/12/27 02:21:20;;;;;;;35.40;30.27;;;23.20;68.20;;;;;;6204116;28;89003;-66
2021/12/27 02:24:22;;;;;;;34.80;31.00;;;23.20;68.30;;;;;;6198349;28;89050;-67
2021/12/27 02:27:25;;;;;;;33.42;29.55;;;23.20;68.30;;;;;;6207264;28;89325;-67
2021/12/27 02:30:27;;;;;;;31.10;27.80;;;23.20;68.30;;;;;;6206412;28;87999;-66
2021/12/27 02:33:29;;;;;;;31.02;27.67;;;23.20;68.30;;;;;;6198511;28;88445;-67
2021/12/27 02:36:33;;;;;;;30.27;26.98;;;23.20;68.30;;;;;;6203476;28;89328;-66
2021/12/27 02:39:35;;;;;;;31.40;27.08;;;23.20;68.30;;;;;;6198490;28;89172;-66
2021/12/27 02:42:53;;;;;;;31.52;26.85;;;23.20;68.30;;;;;;6203991;28;89992;-66
2021/12/27 02:45:58;;;;;;;30.65;27.00;;;23.20;68.30;;;;;;6199600;28;89099;-66
2021/12/27 02:49:00;;;;;;;29.00;25.42;;;23.20;68.30;;;;;;6192726;28;89123;-66
2021/12/27 02:52:04;;;;;;;27.85;24.85;;;23.20;68.20;;;;;;6198265;28;89029;-66
2021/12/27 02:55:06;;;;;;;26.67;23.83;;;23.20;68.20;;;;;;6201111;28;89042;-66
2021/12/27 02:58:09;;;;;;;26.63;23.73;;;23.20;68.30;;;;;;6179782;28;89027;-66
2021/12/27 03:01:13;;;;;;;27.05;24.13;;;23.20;68.20;;;;;;6203008;28;89631;-66
2021/12/27 03:04:15;;;;;;;27.65;22.58;;;23.20;68.20;;;;;;6191641;28;88352;-66
2021/12/27 03:07:19;;;;;;;26.25;22.83;;;23.20;69.10;;;;;;6194899;28;89344;-66
2021/12/27 03:10:25;;;;;;;24.88;22.08;;;23.20;68.20;;;;;;6220026;28;88284;-66
2021/12/27 03:13:29;;;;;;;24.25;21.65;;;23.20;68.20;;;;;;6192083;28;90051;-66
2021/12/27 03:16:32;;;;;;;24.25;21.70;;;23.20;68.20;;;;;;6192130;28;89087;-65
2021/12/27 03:19:34;;;;;;;24.83;21.77;;;23.20;68.10;;;;;;6194558;28;89122;-66
2021/12/27 03:22:38;;;;;;;24.10;21.20;;;23.20;68.10;;;;;;6205758;28;90762;-65
2021/12/27 03:25:40;;;;;;;23.25;20.75;;;23.20;68.10;;;;;;6203624;28;89181;-66
2021/12/27 03:28:43;;;;;;;23.13;20.75;;;23.20;68.00;;;;;;6203978;28;87713;-65
2021/12/27 03:31:45;;;;;;;24.33;21.15;;;23.20;68.90;;;;;;6205115;28;89333;-66
2021/12/27 03:34:54;;;;;;;24.48;21.35;;;23.20;68.00;;;;;;6204904;28;88359;-65
2021/12/27 03:37:59;;;;;;;24.27;21.27;;;23.20;68.10;;;;;;6203180;28;89130;-66
2021/12/27 03:41:02;;;;;;;23.83;21.02;;;23.20;68.10;;;;;;6205455;28;88995;-65
2021/12/27 03:44:04;;;;;;;23.88;21.33;;;23.20;68.00;;;;;;6205391;28;89280;-66
2021/12/27 03:47:07;;;;;;;23.08;20.63;;;23.20;67.90;;;;;;6205314;28;89197;-66
2021/12/27 03:50:09;;;;;;;22.40;20.00;;;23.20;67.90;;;;;;6204956;28;88903;-66
2021/12/27 03:53:13;;;;;;;22.38;19.98;;;23.20;67.90;;;;;;6204135;28;89003;-66
2021/12/27 03:56:15;;;;;;;22.92;20.38;;;23.20;67.80;;;;;;6208110;28;89244;-65
2021/12/27 03:59:23;;;;;;;22.80;20.05;;;23.20;67.80;;;;;;6204155;28;89136;-66
2021/12/27 04:02:25;;;;;;;22.90;20.15;;;23.30;67.90;;;;;;6207616;28;88074;-65
2021/12/27 04:05:28;;;;;;;22.13;19.65;;;23.20;68.00;;;;;;6206165;28;88331;-66
2021/12/27 04:08:31;;;;;;;20.98;18.85;;;23.30;67.80;;;;;;6207629;28;88248;-65
2021/12/27 04:11:34;;;;;;;23.25;20.05;;;23.30;67.70;;;;;;6208634;28;89193;-65
2021/12/27 04:14:36;;;;;;;23.10;19.52;;;23.30;67.70;;;;;;6207725;28;89898;-65
2021/12/27 04:17:38;;;;;;;22.20;19.33;;;23.30;67.70;;;;;;6208675;28;89080;-65
2021/12/27 04:20:41;;;;;;;21.90;19.50;;;23.30;67.60;;;;;;6207529;28;88993;-64
2021/12/27 04:23:44;;;;;;;21.95;19.63;;;23.30;67.60;;;;;;6209903;28;89158;-65
2021/12/27 04:26:46;;;;;;;21.85;19.50;;;23.30;67.50;;;;;;6207599;28;89063;-66
2021/12/27 04:29:48;;;;;;;21.80;19.50;;;23.30;67.50;;;;;;6191922;28;90415;-65
2021/12/27 04:32:51;;;;;;;20.95;18.77;;;23.30;67.50;;;;;;6200468;28;89384;-65
2021/12/27 04:35:53;;;;;;;21.00;18.73;;;23.30;67.40;;;;;;6197495;28;88373;-65
2021/12/27 04:38:56;;;;;;;21.50;19.20;;;23.30;67.40;;;;;;6209970;28;87942;-65
2021/12/27 04:41:59;;;;;;;21.75;18.73;;;23.30;67.40;;;;;;6208289;28;87874;-65
2021/12/27 04:45:03;;;;;;;22.38;19.40;;;23.30;67.40;;;;;;6209484;28;91380;-65
2021/12/27 04:48:07;;;;;;;21.42;19.10;;;23.30;67.40;;;;;;6192665;28;88963;-65
2021/12/27 04:51:09;;;;;;;21.77;19.48;;;23.30;67.40;;;;;;6206885;28;89190;-65
2021/12/27 04:54:13;;;;;;;20.50;18.30;;;23.30;67.40;;;;;;6206727;28;89548;-65
2021/12/27 04:57:16;;;;;;;21.10;18.17;;;23.30;67.40;;;;;;6201900;28;89014;-65
2021/12/27 05:00:18;;;;;;;20.80;18.60;;;23.30;67.30;;;;;;6200380;28;89163;-65
2021/12/27 05:03:20;;;;;;;20.77;18.33;;;23.30;67.30;;;;;;6206362;28;89127;-65
2021/12/27 05:06:22;;;;;;;20.63;18.42;;;23.30;67.30;;;;;;6198873;28;88278;-65
2021/12/27 05:09:26;;;;;;;20.67;18.42;;;23.30;67.30;;;;;;6207003;28;88978;-65
2021/12/27 05:12:28;;;;;;;20.52;17.85;;;23.30;67.30;;;;;;6201799;28;89440;-65
2021/12/27 05:15:48;;;;;;;20.73;18.48;;;23.30;67.20;;;;;;6205798;28;88962;-65
2021/12/27 05:18:50;;;;;;;21.23;18.40;;;23.30;67.20;;;;;;6197689;28;89175;-65
2021/12/27 05:21:52;;;;;;;20.70;18.50;;;23.30;67.20;;;;;;6186823;28;87971;-65
2021/12/27 05:24:56;;;;;;;20.40;18.15;;;23.30;67.20;;;;;;6192975;28;89040;-65
2021/12/27 05:27:58;;;;;;;20.55;18.15;;;23.30;67.30;;;;;;6208460;28;87925;-65
2021/12/27 05:31:00;;;;;;;18.95;17.00;;;23.30;67.40;;;;;;6205459;28;88063;-65
2021/12/27 05:34:02;;;;;;;19.65;17.52;;;23.30;67.40;;;;;;6205358;28;89207;-65
2021/12/27 05:37:05;;;;;;;20.00;17.88;;;23.20;67.30;;;;;;6211810;28;88412;-65
2021/12/27 05:40:12;;;;;;;19.88;17.70;;;23.30;67.40;;;;;;6205007;28;89050;-66
2021/12/27 05:43:14;;;;;;;18.45;16.52;;;23.20;67.40;;;;;;6209383;28;89120;-64
2021/12/27 05:46:16;;;;;;;18.33;16.33;;;23.20;67.50;;;;;;6205698;28;88962;-65
2021/12/27 05:49:18;;;;;;;19.60;16.67;;;23.20;67.50;;;;;;6184959;28;88989;-66
2021/12/27 05:52:20;;;;;;;19.42;17.33;;;23.10;67.60;;;;;;6193112;28;88745;-65
2021/12/27 05:55:24;;;;;;;19.40;16.77;;;23.10;67.60;;;;;;6210922;28;89055;-65
2021/12/27 05:58:26;;;;;;;18.95;16.92;;;23.10;67.70;;;;;;6197640;28;89360;-65
2021/12/27 06:01:29;;;;;;;18.02;16.13;;;23.10;67.70;;;;;;6206831;28;89067;-65
2021/12/27 06:04:31;;;;;;;18.88;16.10;;;23.00;67.70;;;;;;6192546;28;89085;-65
2021/12/27 06:07:33;;;;;;;18.67;16.65;;;23.00;67.80;;;;;;6209110;28;88348;-65
2021/12/27 06:10:37;;;;;;;18.85;16.88;;;23.00;67.80;;;;;;6205616;28;89173;-65
2021/12/27 06:13:39;;;;;;;18.33;16.08;;;23.00;67.80;;;;;;6205347;28;89313;-65
2021/12/27 06:16:41;;;;;;;18.48;15.68;;;23.00;67.90;;;;;;6204609;28;90000;-65
2021/12/27 06:19:43;;;;;;;18.55;16.15;;;23.00;67.90;;;;;;6206991;28;89440;-65
2021/12/27 06:22:52;;;;;;;18.58;16.60;;;23.00;67.90;;;;;;6218258;28;88008;-65
2021/12/27 06:25:55;;;;;;;16.98;15.13;;;23.00;67.90;;;;;;6193915;28;87980;-66
2021/12/27 06:28:57;;;;;;;17.90;15.77;;;22.90;67.90;;;;;;6193152;28;89422;-65
2021/12/27 06:31:59;;;;;;;17.75;15.50;;;23.00;67.90;;;;;;6207601;28;89153;-65
2021/12/27 06:35:01;;;;;;;17.23;15.23;;;22.90;67.90;;;;;;6204394;28;89040;-65
2021/12/27 06:38:03;;;;;;;16.67;14.90;;;23.00;67.90;;;;;;6193298;28;88177;-67
2021/12/27 06:41:07;;;;;;;17.15;15.35;;;22.90;67.70;;;;;;6199321;28;89358;-67
2021/12/27 06:44:09;;;;;;;17.15;15.18;;;23.00;67.80;;;;;;6199386;28;88926;-67
2021/12/27 06:47:11;;;;;;;16.73;14.75;;;23.00;67.80;;;;;;6205066;28;90318;-67
2021/12/27 06:50:13;;;;;;;17.13;14.63;;;23.00;67.70;;;;;;6204769;28;89189;-68
2021/12/27 06:53:15;;;;;;;15.73;14.00;;;23.00;67.70;;;;;;6206329;28;89092;-67
2021/12/27 06:56:19;;;;;;;15.93;13.88;;;23.00;67.70;;;;;;6203957;28;89094;-67
2021/12/27 06:59:21;;;;;;;16.98;15.02;;;23.00;67.60;;;;;;6182357;28;89114;-67
2021/12/27 07:02:23;;;;;;;15.82;14.10;;;23.00;67.60;;;;;;6183656;28;88243;-66
2021/12/27 07:05:28;;;;;;;15.27;13.73;;;23.00;67.50;;;;;;6194279;28;89168;-67
2021/12/27 07:08:30;;;;;;;16.55;14.52;;;23.10;67.60;;;;;;6193739;28;88407;-68
2021/12/27 07:11:33;;;;;;;16.63;14.50;;;23.10;67.60;;;;;;6207564;28;88963;-67
2021/12/27 07:14:35;;;;;;;16.52;14.75;;;23.10;67.50;;;;;;6194434;28;89142;-67
2021/12/27 07:17:37;;;;;;;17.73;15.20;;;23.10;67.40;;;;;;6213065;28;90048;-67
2021/12/27 07:20:40;;;;;;;16.65;14.82;;;23.10;67.20;;;;;;6194148;28;88990;-67
2021/12/27 07:23:44;;;;;;;16.27;14.18;;;23.10;67.10;;;;;;6196114;28;89045;-68
2021/12/27 07:26:47;;;;;;;18.33;14.90;;;23.10;67.10;;;;;;6207014;28;89848;-67
2021/12/27 07:29:49;;;;;;;16.27;13.98;;;23.10;67.10;;;;;;6217867;28;89095;-67
2021/12/27 07:32:51;;;;;;;17.85;14.25;;;23.10;67.00;;;;;;6205655;28;89075;-67
2021/12/27 07:35:53;;;;;;;15.23;13.60;;;23.10;66.80;;;;;;6201688;28;88056;-67
2021/12/27 07:38:56;;;;;;;16.02;14.07;;;23.10;67.70;;;;;;6190856;28;88787;-67
2021/12/27 07:41:59;;;;;;;15.60;13.93;;;23.10;66.80;;;;;;6200018;28;89113;-67
2021/12/27 07:45:02;;;;;;;17.10;13.77;;;23.20;66.80;;;;;;6195433;28;89098;-70
2021/12/27 07:48:07;;;;;;;16.48;13.88;;;23.20;67.40;;;;;;6196144;28;89907;-68
2021/12/27 07:51:09;;;;;;;15.73;13.45;;;23.20;67.20;;;;;;6199569;28;89207;-69
2021/12/27 07:54:11;;;;;;;16.80;13.48;;;23.20;67.10;;;;;;6185313;28;89425;-69
2021/12/27 07:57:15;;;;;;;17.40;14.00;;;23.30;67.30;;;;;;6183499;28;89178;-72
2021/12/27 08:00:18;;;;;;;18.25;15.43;;;23.20;67.30;;;;;;6200289;28;89170;-68
2021/12/27 08:03:21;;;;;;;15.40;13.48;;;23.20;65.40;;;;;;6209692;28;89405;-69
2021/12/27 08:06:23;;;;;;;16.00;13.63;;;23.30;66.40;;;;;;6201040;28;88083;-70
2021/12/27 08:09:26;;;;;;;17.08;14.13;;;23.30;66.60;;;;;;6199817;28;88319;-69
2021/12/27 08:12:30;;;;;;;15.05;12.73;;;23.30;66.60;;;;;;6206610;28;89044;-69
2021/12/27 08:15:32;;;;;;;15.52;13.13;;;23.30;66.70;;;;;;6202961;28;89226;-68
2021/12/27 08:18:34;;;;;;;17.27;14.88;;;23.30;66.50;;;;;;6196810;28;90327;-70
2021/12/27 08:21:37;;;;;;;15.75;13.48;;;23.30;66.40;;;;;;6198091;28;89508;-68
2021/12/27 08:24:39;;;;;;;16.20;14.13;;;23.30;66.40;;;;;;6196316;28;89402;-70
2021/12/27 08:27:44;;;;;;;17.63;14.15;;;23.30;66.40;;;;;;6203868;28;88996;-68
2021/12/27 08:30:46;;;;;;;16.58;14.43;;;23.30;66.40;;;;;;6197296;28;89063;-70
2021/12/27 08:33:48;;;;;;;15.90;13.82;;;23.30;66.40;;;;;;6197143;28;89128;-69
2021/12/27 08:36:50;;;;;;;16.13;14.18;;;23.30;66.40;;;;;;6193830;28;89070;-70
2021/12/27 08:39:52;;;;;;;17.05;13.90;;;23.30;66.40;;;;;;6196841;28;88296;-69
2021/12/27 08:42:56;;;;;;;16.40;14.63;;;23.30;66.40;;;;;;6203211;28;89073;-69
2021/12/27 08:45:59;;;;;;;15.95;13.90;;;23.30;66.30;;;;;;6201919;28;89032;-69
2021/12/27 08:49:02;;;;;;;16.45;14.65;;;23.30;66.40;;;;;;6195741;28;89934;-69
2021/12/27 08:52:05;;;;;;;15.85;13.93;;;23.30;66.30;;;;;;6201993;28;89072;-69
2021/12/27 08:55:08;;;;;;;16.98;14.18;;;23.30;66.20;;;;;;6194504;28;88198;-68
2021/12/27 08:58:11;;;;;;;16.35;14.00;;;23.30;66.60;;;;;;6221171;28;89176;-67
2021/12/27 09:01:13;;;;;;;17.73;14.63;;;23.30;66.60;;;;;;6193786;28;89087;-68
2021/12/27 09:04:15;;;;;;;18.05;14.45;;;23.30;66.60;;;;;;6195118;28;87613;-67
2021/12/27 09:07:18;;;;;;;19.27;15.63;;;23.30;66.60;;;;;;6193086;28;89406;-68
2021/12/27 09:10:20;;;;;;;16.70;14.77;;;23.30;65.20;;;;;;6196670;28;88429;-68
2021/12/27 09:13:23;;;;;;;17.85;14.82;;;23.30;65.20;;;;;;6200171;28;89181;-68
2021/12/27 09:16:27;;;;;;;17.98;14.65;;;23.30;65.80;;;;;;6195365;28;89152;-69
2021/12/27 09:19:29;;;;;;;19.08;14.93;;;23.30;65.90;;;;;;6191212;28;89162;-68
2021/12/27 09:22:31;;;;;;;20.23;15.27;;;23.30;65.90;;;;;;6199992;28;89062;-68
2021/12/27 09:25:33;;;;;;;17.08;14.68;;;23.30;66.10;;;;;;6192615;28;89130;-69
2021/12/27 09:28:36;;;;;;;16.88;14.48;;;23.30;66.10;;;;;;6208160;28;89460;-68
2021/12/27 09:31:38;;;;;;;16.27;14.32;;;23.30;66.10;;;;;;6197148;28;89035;-68
2021/12/27 09:34:41;;;;;;;16.25;14.40;;;23.30;66.60;;;;;;6205578;28;89195;-67
2021/12/27 09:37:43;;;;;;;17.98;14.77;;;23.40;66.70;;;;;;6202029;28;89021;-67
2021/12/27 09:40:45;;;;;;;17.75;15.82;;;23.30;67.00;;;;;;6186535;28;88578;-66
2021/12/27 09:43:50;;;;;;;18.60;16.15;;;23.30;67.60;;;;;;6204784;28;89049;-66
2021/12/27 09:46:52;;;;;;;45.30;22.48;;;23.40;68.50;;;;;;6195928;28;89184;-67
2021/12/27 09:49:54;;;;;;;53.30;24.65;;;23.30;71.00;;;;;;6208343;28;89961;-67
2021/12/27 09:52:56;;;;;;;30.17;17.48;;;23.40;73.70;;;;;;6192288;28;88109;-67
2021/12/27 09:55:58;;;;;;;26.05;17.60;;;23.40;70.30;;;;;;6195355;28;88081;-67
2021/12/27 09:59:02;;;;;;;22.95;17.17;;;23.40;69.10;;;;;;6194391;28;89094;-67
2021/12/27 10:02:05;;;;;;;24.55;16.70;;;23.50;68.60;;;;;;6207555;28;89171;-67
2021/12/27 10:05:08;;;;;;;22.02;18.00;;;23.50;68.60;;;;;;6190941;28;89099;-68
2021/12/27 10:08:10;;;;;;;24.38;16.50;;;23.50;68.70;;;;;;6206664;28;89185;-67
2021/12/27 10:11:17;;;;;;;25.13;16.42;;;23.50;68.90;;;;;;6199613;28;88581;-69
2021/12/27 10:14:24;;;;;;;24.20;17.38;;;23.50;69.20;;;;;;6193799;28;88210;-70
2021/12/27 10:17:27;;;;;;;23.45;16.80;;;23.50;68.80;;;;;;6189386;28;87983;-68
2021/12/27 10:20:29;;;;;;;22.38;16.92;;;23.50;68.50;;;;;;6200518;28;89236;-71
2021/12/27 10:23:33;;;;;;;22.27;16.90;;;23.50;68.50;;;;;;6206203;28;89063;-68
2021/12/27 10:26:37;;;;;;;24.02;16.23;;;23.50;69.30;;;;;;6197156;28;89329;-71
2021/12/27 10:29:41;;;;;;;20.92;16.00;;;23.60;68.60;;;;;;6201050;28;89004;-71
2021/12/27 10:32:44;;;;;;;24.65;17.15;;;23.50;68.60;;;;;;6206112;28;89018;-71
2021/12/27 10:35:50;;;;;;;24.33;17.15;;;23.50;68.50;;;;;;6205431;28;89082;-69
2021/12/27 10:38:54;;;;;;;21.60;15.88;;;23.50;68.60;;;;;;6206205;28;89602;-69
2021/12/27 10:42:07;;;;;;;23.63;15.98;;;23.50;68.40;;;;;;6198099;28;88648;-69
2021/12/27 10:45:12;;;;;;;18.02;15.48;;;23.60;68.70;;;;;;6193337;28;89108;-69
2021/12/27 10:48:22;;;;;;;21.38;15.82;;;23.60;68.60;;;;;;6206200;28;89155;-69
2021/12/27 10:51:25;;;;;;;21.88;15.90;;;23.50;68.60;;;;;;6207651;28;90069;-67
2021/12/27 10:54:27;;;;;;;22.65;16.45;;;23.50;68.50;;;;;;6203908;28;88026;-67
2021/12/27 10:57:30;;;;;;;27.20;17.27;;;23.60;68.70;;;;;;6203554;28;88990;-67
2021/12/27 11:00:34;;;;;;;29.30;17.98;;;23.60;69.60;;;;;;6204994;28;89177;-67
2021/12/27 11:03:38;;;;;;;29.20;17.63;;;23.50;69.90;;;;;;6181761;28;89003;-67
2021/12/27 11:06:41;;;;;;;25.13;16.70;;;23.50;69.70;;;;;;6208749;28;89510;-67
2021/12/27 11:09:44;;;;;;;20.35;15.52;;;23.50;69.50;;;;;;6203664;28;89078;-67
2021/12/27 11:12:46;;;;;;;22.02;15.68;;;23.50;69.30;;;;;;6202528;28;88753;-67
2021/12/27 11:15:50;;;;;;;21.15;15.63;;;23.50;69.10;;;;;;6198967;28;89101;-66
2021/12/27 11:18:52;;;;;;;20.65;15.88;;;23.50;69.00;;;;;;6191066;28;89112;-67
2021/12/27 11:21:54;;;;;;;20.88;15.77;;;23.60;68.90;;;;;;6200690;28;90035;-66
2021/12/27 11:24:58;;;;;;;20.73;14.93;;;23.50;68.80;;;;;;6209672;28;89151;-65
2021/12/27 11:28:01;;;;;;;18.50;14.60;;;23.50;68.80;;;;;;6207303;28;89420;-66
2021/12/27 11:31:07;;;;;;;22.08;14.85;;;23.60;68.80;;;;;;6205679;28;89132;-67
2021/12/27 11:34:14;;;;;;;22.17;14.55;;;23.60;68.80;;;;;;6201213;28;89463;-67
2021/12/27 11:37:16;;;;;;;21.85;15.00;;;23.60;68.70;;;;;;6199625;28;89285;-67
2021/12/27 11:43:48;;;;;;;20.58;15.05;;;23.60;68.60;;;;;;6186514;28;86540;-66
2021/12/27 11:46:58;;;;;;;19.15;14.27;;;23.60;68.50;;;;;;6192510;28;89437;-66
2021/12/27 11:50:02;;;;;;;20.38;14.57;;;23.60;68.60;;;;;;6189236;28;87985;-64
2021/12/27 11:53:07;;;;;;;19.77;14.68;;;23.60;68.50;;;;;;6229766;28;90024;-66
2021/12/27 11:56:11;;;;;;;18.30;14.35;;;23.60;75.10;;;;;;6191041;28;89263;-65
2021/12/27 11:59:32;;;;;;;21.02;15.10;;;23.60;74.20;;;;;;6205421;28;89171;-65
2021/12/27 12:02:35;;;;;;;21.25;14.73;;;23.60;73.30;;;;;;6200692;28;89205;-64
2021/12/27 12:05:39;;;;;;;18.80;14.23;;;23.70;70.80;;;;;;6198326;28;89021;-64
2021/12/27 12:08:50;;;;;;;20.25;14.18;;;23.70;70.40;;;;;;6198111;28;88967;-65
2021/12/27 12:12:02;;;;;;;23.70;14.05;;;23.70;70.30;;;;;;6208495;28;89200;-65
2021/12/27 12:15:04;;;;;;;20.38;13.70;;;23.70;70.10;;;;;;6206233;28;88683;-64
2021/12/27 12:18:18;;;;;;;19.90;13.82;;;23.70;69.90;;;;;;6199395;28;89076;-65
2021/12/27 12:21:39;;;;;;;18.70;14.00;;;23.70;70.00;;;;;;6205553;28;89117;-64
2021/12/27 12:24:41;;;;;;;17.10;13.25;;;23.60;69.80;;;;;;6206901;28;89929;-64
2021/12/27 12:27:55;;;;;;;18.48;13.30;;;23.60;70.00;;;;;;6193990;28;89149;-64
2021/12/27 12:30:58;;;;;;;18.23;12.82;;;23.60;69.50;;;;;;6207780;28;87904;-64
2021/12/27 12:34:12;;;;;;;16.35;12.95;;;23.60;69.40;;;;;;6208458;28;89026;-66
2021/12/27 12:37:16;;;;;;;17.17;12.23;;;23.60;69.20;;;;;;6209954;28;87995;-66
2021/12/27 12:40:23;;;;;;;14.80;11.95;;;23.60;69.10;;;;;;6183526;28;87872;-66
2021/12/27 12:43:43;;;;;;;17.88;13.07;;;23.60;69.00;;;;;;6193866;28;87969;-66
2021/12/27 12:46:49;;;;;;;17.30;12.73;;;23.60;68.90;;;;;;6207827;28;88376;-67
2021/12/27 12:49:53;;;;;;;18.02;12.85;;;23.60;68.80;;;;;;6206660;28;89138;-67
2021/12/27 12:52:56;;;;;;;17.50;13.32;;;23.60;68.70;;;;;;6194758;28;89155;-66
2021/12/27 12:56:01;;;;;;;19.60;14.00;;;23.60;68.60;;;;;;6194201;28;90281;-66
2021/12/27 12:59:03;;;;;;;18.60;13.40;;;23.60;68.60;;;;;;6196345;28;89453;-66
2021/12/27 13:02:08;;;;;;;19.67;14.25;;;23.60;68.40;;;;;;6207377;28;88997;-66
2021/12/27 13:05:15;;;;;;;17.00;13.60;;;23.60;68.40;;;;;;6207523;28;89129;-66
2021/12/27 13:08:17;;;;;;;21.17;14.48;;;23.60;68.40;;;;;;6194721;28;89064;-67
2021/12/27 13:11:19;;;;;;;21.00;14.80;;;23.60;68.40;;;;;;6197273;28;88316;-66
2021/12/27 13:14:25;;;;;;;22.60;15.02;;;23.60;68.30;;;;;;6206155;28;87996;-66
2021/12/27 13:17:28;;;;;;;21.23;14.98;;;23.60;68.30;;;;;;6201377;28;88289;-66
2021/12/27 13:20:34;;;;;;;24.02;15.77;;;23.60;69.10;;;;;;6194325;28;88977;-66
2021/12/27 13:23:39;;;;;;;24.30;15.18;;;23.60;68.20;;;;;;6206097;28;89067;-66
2021/12/27 13:26:42;;;;;;;24.67;15.77;;;23.60;68.30;;;;;;6199094;28;89124;-67
2021/12/27 13:29:44;;;;;;;23.08;16.58;;;23.60;68.20;;;;;;6220500;28;89268;-67
2021/12/27 13:32:46;;;;;;;24.10;15.52;;;23.60;68.20;;;;;;6195613;28;89659;-67
2021/12/27 13:35:50;;;;;;;22.98;15.90;;;23.60;68.30;;;;;;6205995;28;89141;-64
2021/12/27 13:39:06;;;;;;;23.48;15.60;;;23.60;68.30;;;;;;6186458;28;89386;-64
2021/12/27 13:42:11;;;;;;;26.02;15.68;;;23.60;68.40;;;;;;6184859;28;89051;-65
2021/12/27 13:45:15;;;;;;;24.52;16.65;;;23.60;68.50;;;;;;6200626;28;88817;-64
2021/12/27 13:48:28;;;;;;;28.80;17.48;;;23.60;68.60;;;;;;6187648;28;87318;-64
2021/12/27 13:51:34;;;;;;;26.10;16.23;;;23.60;68.80;;;;;;6194926;28;89100;-65
2021/12/27 13:54:43;;;;;;;27.15;17.05;;;23.60;68.70;;;;;;6205505;28;87926;-64
2021/12/27 13:57:45;;;;;;;26.05;16.65;;;23.60;68.80;;;;;;6199373;28;89996;-64
2021/12/27 14:00:52;;;;;;;26.58;16.50;;;23.60;68.70;;;;;;6191905;28;89331;-65
2021/12/27 14:03:54;;;;;;;27.98;17.05;;;23.50;68.60;;;;;;6192889;28;89135;-64
2021/12/27 14:06:59;;;;;;;25.23;16.42;;;23.60;68.60;;;;;;6200480;28;88937;-64
2021/12/27 14:10:02;;;;;;;28.08;17.33;;;23.60;68.60;;;;;;6193489;28;88434;-64
2021/12/27 14:13:04;;;;;;;26.27;16.80;;;23.50;68.60;;;;;;6195985;28;89443;-64
2021/12/27 14:16:19;;;;;;;27.65;17.67;;;23.50;68.40;;;;;;6183581;28;89411;-64
2021/12/27 14:19:24;;;;;;;25.90;16.30;;;23.60;68.50;;;;;;6204532;28;88469;-64
2021/12/27 14:22:38;;;;;;;26.63;16.77;;;23.50;68.40;;;;;;6195820;28;88096;-64
2021/12/27 14:25:41;;;;;;;25.90;17.10;;;23.50;68.40;;;;;;6203125;28;89085;-65
2021/12/27 14:28:43;;;;;;;26.77;16.80;;;23.50;68.40;;;;;;6204610;28;90132;-65
2021/12/27 14:31:48;;;;;;;26.75;17.73;;;23.50;68.40;;;;;;6184399;28;89153;-65
2021/12/27 14:34:52;;;;;;;27.52;17.80;;;23.50;68.30;;;;;;6198400;28;89109;-65
2021/12/27 14:37:58;;;;;;;27.65;16.95;;;23.50;68.30;;;;;;6193066;28;89082;-65
2021/12/27 14:41:02;;;;;;;26.38;16.75;;;23.50;68.30;;;;;;6200979;28;89069;-65
2021/12/27 14:44:04;;;;;;;27.30;16.17;;;23.50;68.40;;;;;;6195018;28;88483;-64
2021/12/27 14:47:07;;;;;;;27.15;17.38;;;23.50;68.50;;;;;;6182553;28;89061;-65
2021/12/27 14:50:10;;;;;;;24.83;16.33;;;23.50;68.70;;;;;;6182646;28;88622;-65
2021/12/27 14:53:14;;;;;;;25.73;16.55;;;23.50;68.80;;;;;;6194896;28;88566;-65
2021/12/27 14:56:16;;;;;;;23.30;15.98;;;23.50;68.90;;;;;;6205975;28;89250;-65
2021/12/27 14:59:18;;;;;;;23.85;16.50;;;23.50;68.90;;;;;;6190285;28;90296;-64
2021/12/27 15:02:20;;;;;;;24.92;15.90;;;23.50;68.90;;;;;;6203673;28;88845;-65
2021/12/27 15:05:22;;;;;;;25.48;17.08;;;23.50;69.00;;;;;;6195310;28;89304;-65
2021/12/27 15:08:27;;;;;;;27.05;16.65;;;23.50;69.10;;;;;;6199590;28;89449;-65
2021/12/27 15:11:29;;;;;;;23.73;16.52;;;23.50;69.10;;;;;;6201488;28;89022;-65
2021/12/27 15:14:31;;;;;;;23.52;15.95;;;23.50;69.20;;;;;;6210122;28;89094;-65
2021/12/27 15:17:33;;;;;;;26.13;17.00;;;23.50;69.20;;;;;;6190507;28;89071;-65
2021/12/27 15:20:37;;;;;;;24.25;16.27;;;23.50;69.30;;;;;;6197415;28;88465;-65
2021/12/27 15:23:40;;;;;;;23.35;16.23;;;23.50;69.40;;;;;;6186057;28;89223;-65
2021/12/27 15:26:43;;;;;;;25.38;16.40;;;23.50;69.50;;;;;;6191653;28;89365;-65
2021/12/27 15:29:45;;;;;;;26.27;16.45;;;23.50;69.60;;;;;;6198127;28;90061;-65
2021/12/27 15:32:48;;;;;;;23.52;16.30;;;23.40;69.60;;;;;;6196435;28;89068;-65